Pagina principale
METAR-TAF:

METAR-TAF

Aeroporti :

Katima Mulilo, Namibia

latitudine: 17-38-04S, longitudine: 024-10-36E, altezza: 985 m

Osservazione

Il bollettino è stato emesso 28 minuti fa, alle 06:00 UTC
Vento 7 kt da nord/nord-est
Temperature 27°C
Umidità 54%
Pressione 1012 hPa
Visibilità 10 km o più
nessuna nube inferiore a 1500 m e nessun cumulonembo

METAR: FYKM 180600Z 02007KT CAVOK 27/17 Q1012

Ora: 08:28 (06:28 UTC)

Previsione

Il bollettino è stato emesso 1 ora e 28 minuti fa, alle 05:00 UTC
Previsione valida dal 18 alle 06 UTC al 18 alle 15 UTC
Vento 5 kt da est/nord-est
Visibilità 10 km o più
nessuna nube inferiore a 1500 m e nessun cumulonembo
Evoluzione graduale
dal 18 alle 09 UTC al 18 alle 11 UTC
Nubi sparse ad un'altezza di 4000 ft

TAF: FYKM 180500Z 1806/1815 06005KT CAVOK BECMG 1809/1811 SCT040

Osservazioni e previsioni meteorologiche di più di 4000 aeroporti (messaggi METAR e TAF).

Le stazioni disponibili sono rappresentate dai dischi gialli e rossi sulla carta.

Puntare il mouse per vedere il nome della stazione.

Clicca sopra per visualizzare le osservazioni e previsioni meteorologiche.

Per cambiare la mappa : fare clic sui pulsanti verdi con una croce nera per ingrandire, il pulsante verde con un trattino per diminuire, o sulla freccia verde per le mappe adiacenti.


METAR-TAF: